createdAt,value
2022-12-20T00:01:53.936Z,67021.19
2022-12-20T00:04:23.959Z,67018.59
2022-12-20T00:06:51.117Z,67023.09
2022-12-20T00:09:18.829Z,67023.66
2022-12-20T00:11:51.446Z,67026.81
2022-12-20T00:14:18.669Z,67026.81
2022-12-20T00:16:45.865Z,67020.16
2022-12-20T00:19:16.214Z,67026.25
2022-12-20T00:21:46.563Z,67024.38
2022-12-20T00:24:13.785Z,67019.19
2022-12-20T00:26:47.201Z,67016.38
2022-12-20T00:29:15.140Z,67014.00
2022-12-20T00:31:42.315Z,67015.81
2022-12-20T00:34:10.658Z,67015.25
2022-12-20T00:36:45.984Z,67015.59
2022-12-20T00:39:15.310Z,67017.28
2022-12-20T00:41:42.482Z,67011.53
2022-12-20T00:44:09.689Z,67013.34
2022-12-20T00:46:37.476Z,67010.19
2022-12-20T00:49:07.518Z,67006.47
2022-12-20T00:51:37.010Z,67018.75
2022-12-20T00:54:07.399Z,67022.69
2022-12-20T00:56:36.852Z,67018.06
2022-12-20T00:59:04.416Z,67019.72
2022-12-20T01:01:34.906Z,67023.09
2022-12-20T01:04:05.055Z,67023.88
2022-12-20T01:06:33.006Z,67038.59
2022-12-20T01:09:02.620Z,67041.97
2022-12-20T01:11:38.018Z,67037.91
2022-12-20T01:14:15.163Z,67041.63
2022-12-20T01:16:46.218Z,67049.25
2022-12-20T01:19:17.521Z,67053.75
2022-12-20T01:21:46.430Z,67060.50
2022-12-20T01:24:20.067Z,67060.13
2022-12-20T01:26:50.336Z,67057.19
2022-12-20T01:29:19.006Z,67070.59
2022-12-20T01:31:48.232Z,67073.41
2022-12-20T01:34:15.580Z,67073.41
2022-12-20T01:36:44.847Z,67067.09
2022-12-20T01:39:14.751Z,67070.47
2022-12-20T01:41:45.377Z,67074.38
2022-12-20T01:44:19.857Z,67079.22
2022-12-20T01:46:49.179Z,67079.59
2022-12-20T01:49:41.923Z,67076.75
2022-12-20T01:52:16.767Z,67073.06
2022-12-20T01:54:51.569Z,67078.09
2022-12-20T01:57:25.853Z,67078.88
2022-12-20T01:59:55.929Z,67079.59
2022-12-20T02:02:27.220Z,67082.38
2022-12-20T02:04:55.518Z,67069.56
2022-12-20T02:07:31.047Z,67082.38
2022-12-20T02:10:03.722Z,67085.75
2022-12-20T02:12:43.057Z,67089.69
2022-12-20T02:15:34.787Z,67088.78
2022-12-20T02:18:44.293Z,67090.81
2022-12-20T02:21:22.177Z,67087.66
2022-12-20T02:24:24.851Z,67087.31
2022-12-20T02:27:34.246Z,67092.84
2022-12-20T02:30:11.745Z,67085.97
2022-12-20T02:32:42.773Z,67078.31
2022-12-20T02:35:15.099Z,67080.34
2022-12-20T02:37:50.738Z,67077.75
2022-12-20T02:40:21.865Z,67079.78
2022-12-20T02:42:54.447Z,67078.69
2022-12-20T02:45:37.217Z,67071.94
2022-12-20T02:48:11.451Z,67068.56
2022-12-20T02:50:42.565Z,67069.13
2022-12-20T02:53:15.652Z,67067.78
2022-12-20T02:56:13.105Z,67062.38
2022-12-20T02:58:52.473Z,67058.09
2022-12-20T03:01:31.748Z,67061.28
2022-12-20T03:04:02.496Z,67061.28
2022-12-20T03:06:59.470Z,67057.53
2022-12-20T03:09:30.997Z,67056.41
2022-12-20T03:11:58.396Z,67055.31
2022-12-20T03:14:28.580Z,67057.34
2022-12-20T03:16:59.087Z,67056.22
2022-12-20T03:19:30.632Z,67058.44
2022-12-20T03:21:59.661Z,67056.78
2022-12-20T03:24:26.897Z,67059.59
2022-12-20T03:26:55.199Z,67059.00
2022-12-20T03:29:24.576Z,67059.00
2022-12-20T03:31:52.455Z,67058.09
2022-12-20T03:34:20.126Z,67068.34
2022-12-20T03:36:54.781Z,67065.97
2022-12-20T03:39:22.324Z,67065.41
2022-12-20T03:41:51.456Z,67068.00
2022-12-20T03:44:19.330Z,67072.84
2022-12-20T03:46:46.532Z,67067.66
2022-12-20T03:49:16.617Z,67070.25
2022-12-20T03:51:50.132Z,67067.31
2022-12-20T03:54:18.779Z,67072.16
2022-12-20T03:57:09.286Z,67073.06
2022-12-20T03:59:36.661Z,67068.41
2022-12-20T04:02:05.987Z,67073.06
2022-12-20T04:04:34.348Z,67072.72
2022-12-20T04:07:01.568Z,67072.50
2022-12-20T04:09:28.861Z,67074.38
2022-12-20T04:12:05.914Z,67074.94
2022-12-20T04:14:36.814Z,67079.59
2022-12-20T04:17:06.190Z,67082.38
2022-12-20T04:19:34.689Z,67055.88
2022-12-20T04:22:08.233Z,67075.50
2022-12-20T04:24:57.025Z,67079.78
2022-12-20T04:27:27.015Z,67080.91
2022-12-20T04:29:57.699Z,67076.63
2022-12-20T04:32:25.919Z,67080.91
2022-12-20T04:34:56.991Z,67082.59
2022-12-20T04:37:26.575Z,67082.25
2022-12-20T04:39:56.426Z,67086.53
2022-12-20T04:42:50.348Z,67088.00
2022-12-20T04:45:21.266Z,67087.09
2022-12-20T04:47:53.872Z,67094.16
2022-12-20T04:50:33.976Z,67087.66
2022-12-20T04:53:21.127Z,67089.91
2022-12-20T04:55:50.856Z,67085.63
2022-12-20T04:58:18.724Z,67082.44
2022-12-20T05:00:46.699Z,67086.53
2022-12-20T05:03:36.152Z,67091.16
2022-12-20T05:06:03.931Z,67085.97
2022-12-20T05:08:31.332Z,67086.31
2022-12-20T05:11:00.863Z,67083.38
2022-12-20T05:13:29.289Z,67080.00
2022-12-20T05:15:57.468Z,67086.53
2022-12-20T05:18:29.547Z,67086.53
2022-12-20T05:21:20.778Z,67081.69
2022-12-20T05:24:09.364Z,67084.63
2022-12-20T05:26:53.054Z,67077.97
2022-12-20T05:29:20.403Z,67077.75
2022-12-20T05:31:47.923Z,67079.44
2022-12-20T05:34:25.103Z,67079.44
2022-12-20T05:36:54.437Z,67083.16
2022-12-20T05:39:24.832Z,67082.03
2022-12-20T05:41:55.054Z,67082.59
2022-12-20T05:44:28.338Z,67080.22
2022-12-20T05:47:02.225Z,67087.66
2022-12-20T05:49:32.006Z,67091.00
2022-12-20T05:52:03.110Z,67097.19
2022-12-20T05:54:30.392Z,67099.09
2022-12-20T05:57:24.495Z,67101.69
2022-12-20T06:00:43.300Z,67097.97
2022-12-20T06:03:12.013Z,67104.50
2022-12-20T06:05:39.900Z,67108.41
2022-12-20T06:08:07.939Z,67110.09
2022-12-20T06:10:35.696Z,67114.41
2022-12-20T06:13:04.173Z,67116.28
2022-12-20T06:15:32.303Z,67115.94
2022-12-20T06:18:01.123Z,67121.69
2022-12-20T06:20:34.351Z,67123.38
2022-12-20T06:23:04.189Z,67127.88
2022-12-20T06:25:39.835Z,67126.41
2022-12-20T06:28:07.674Z,67124.13
2022-12-20T06:30:35.109Z,67119.66
2022-12-20T06:33:07.325Z,67117.41
2022-12-20T06:35:34.539Z,67118.53
2022-12-20T06:38:01.710Z,67114.59
2022-12-20T06:40:32.665Z,67118.31
2022-12-20T06:43:01.492Z,67090.09
2022-12-20T06:45:29.329Z,67109.56
2022-12-20T06:47:58.223Z,67103.81
2022-12-20T06:50:28.851Z,67109.56
2022-12-20T06:52:56.266Z,67106.03
2022-12-20T06:55:25.790Z,67101.91
2022-12-20T06:57:53.023Z,67103.38
2022-12-20T07:00:20.948Z,67099.66
2022-12-20T07:02:48.214Z,67105.97
2022-12-20T07:05:15.460Z,67102.03
2022-12-20T07:07:45.202Z,67098.88
2022-12-20T07:10:13.106Z,67100.56
2022-12-20T07:12:47.172Z,67098.88
2022-12-20T07:15:15.328Z,67101.47
2022-12-20T07:17:42.600Z,67097.19
2022-12-20T07:20:14.133Z,67102.03
2022-12-20T07:22:41.841Z,67099.22
2022-12-20T07:25:09.753Z,67102.59
2022-12-20T07:27:37.024Z,67105.41
2022-12-20T07:30:05.218Z,67102.25
2022-12-20T07:32:35.444Z,67110.47
2022-12-20T07:35:05.802Z,67110.09
2022-12-20T07:37:32.964Z,67109.56
2022-12-20T07:40:02.579Z,67110.34
2022-12-20T07:42:38.002Z,67114.59
2022-12-20T07:45:06.958Z,67120.56
2022-12-20T07:47:35.827Z,67122.47
2022-12-20T07:50:03.533Z,67127.31
2022-12-20T07:52:34.869Z,67125.81
2022-12-20T07:55:07.493Z,67127.88
2022-12-20T07:57:51.819Z,67126.19
2022-12-20T08:00:23.115Z,67126.97
2022-12-20T08:03:03.328Z,67126.06
2022-12-20T08:05:34.898Z,67125.28
2022-12-20T08:08:02.603Z,67123.94
2022-12-20T08:10:31.124Z,67120.44
2022-12-20T08:12:58.996Z,67120.78
2022-12-20T08:15:26.665Z,67124.50
2022-12-20T08:17:53.898Z,67122.47
2022-12-20T08:20:21.093Z,67116.16
2022-12-20T08:22:58.781Z,67117.97
2022-12-20T08:25:26.034Z,67115.16
2022-12-20T08:27:53.200Z,67115.53
2022-12-20T08:34:21.753Z,67107.31
2022-12-20T08:36:51.480Z,67111.59
2022-12-20T08:39:18.709Z,67106.72
2022-12-20T08:41:46.054Z,67119.66
2022-12-20T08:44:13.851Z,67112.22
2022-12-20T08:46:41.065Z,67123.22
2022-12-20T08:49:08.320Z,67126.97
2022-12-20T08:51:35.942Z,67129.19
2022-12-20T08:54:03.498Z,67137.97
2022-12-20T08:56:30.816Z,67147.53
2022-12-20T09:03:29.422Z,67135.03
2022-12-20T09:05:59.920Z,67142.69
2022-12-20T09:08:27.545Z,67140.44
2022-12-20T09:11:57.913Z,67151.13
2022-12-20T09:14:25.227Z,67139.31
2022-12-20T09:16:52.437Z,67140.44
2022-12-20T09:19:23.441Z,67134.81
2022-12-20T09:21:51.246Z,67133.13
2022-12-20T09:24:19.457Z,67136.88
2022-12-20T09:26:46.713Z,67135.59
2022-12-20T09:29:25.020Z,67142.13
2022-12-20T09:31:54.625Z,67160.66
2022-12-20T09:34:30.299Z,67179.97
2022-12-20T09:36:57.543Z,67222.63
2022-12-20T09:43:44.711Z,67266.34
2022-12-20T09:46:14.625Z,67224.91
2022-12-20T09:48:43.689Z,67190.44
2022-12-20T09:51:10.730Z,67173.38
2022-12-20T09:53:58.878Z,67170.19
2022-12-20T09:56:45.181Z,67166.28
2022-12-20T09:59:19.160Z,67168.53
2022-12-20T10:01:48.541Z,67178.66
2022-12-20T10:04:27.117Z,67176.41
2022-12-20T10:07:22.133Z,67188.56
2022-12-20T10:09:58.098Z,67168.72
2022-12-20T10:12:43.698Z,67165.72
2022-12-20T10:15:22.164Z,67165.88
2022-12-20T10:18:20.643Z,67155.06
2022-12-20T10:21:00.893Z,67138.63
2022-12-20T10:23:37.268Z,67134.47
2022-12-20T10:26:09.774Z,67139.66
2022-12-20T10:28:37.812Z,67137.06
2022-12-20T10:31:06.866Z,67139.66
2022-12-20T10:33:34.661Z,67139.88
2022-12-20T10:36:20.549Z,67146.41
2022-12-20T10:38:51.472Z,67152.59
2022-12-20T10:41:23.389Z,67145.69
2022-12-20T10:44:02.725Z,67149.06
2022-12-20T10:46:42.646Z,67154.28
2022-12-20T10:49:31.830Z,67154.84
2022-12-20T10:52:19.218Z,67149.44
2022-12-20T10:54:47.503Z,67149.78
2022-12-20T10:57:33.562Z,67144.00
2022-12-20T11:00:05.516Z,67141.56
2022-12-20T11:02:40.752Z,67141.00
2022-12-20T11:05:11.976Z,67142.69
2022-12-20T11:10:46.121Z,67144.94
2022-12-20T11:13:26.701Z,67147.94
2022-12-20T11:15:57.734Z,67162.34
2022-12-20T11:18:50.238Z,67174.72
2022-12-20T11:21:27.440Z,67205.41
2022-12-20T11:24:20.149Z,67223.75
2022-12-20T11:27:11.921Z,67231.13
2022-12-20T11:29:52.980Z,67235.38
2022-12-20T11:32:21.265Z,67234.47
2022-12-20T11:35:00.288Z,67242.69
2022-12-20T11:37:32.676Z,67234.06
2022-12-20T11:40:05.438Z,67195.69
2022-12-20T11:43:03.795Z,67180.53
2022-12-20T11:46:11.159Z,67183.13
2022-12-20T11:48:47.138Z,67174.91
2022-12-20T11:51:26.561Z,67175.25
2022-12-20T11:54:01.407Z,67173.56
2022-12-20T11:56:43.883Z,67168.53
2022-12-20T11:59:26.871Z,67162.56
2022-12-20T12:02:03.116Z,67167.75
2022-12-20T12:04:35.210Z,67179.34
2022-12-20T12:07:10.017Z,67176.94
2022-12-20T12:09:50.607Z,67171.88
2022-12-20T12:12:46.481Z,67167.03
2022-12-20T12:15:19.773Z,67166.84
2022-12-20T12:17:51.639Z,67165.72
2022-12-20T12:20:25.712Z,67151.13
2022-12-20T12:23:05.041Z,67144.00
2022-12-20T12:25:32.144Z,67143.81
2022-12-20T12:27:59.486Z,67142.31
2022-12-20T12:30:35.319Z,67146.63
2022-12-20T12:33:23.916Z,67143.81
2022-12-20T12:36:16.438Z,67146.41
2022-12-20T12:39:04.041Z,67144.72
2022-12-20T12:41:43.046Z,67137.47
2022-12-20T12:44:19.061Z,67140.44
2022-12-20T12:46:53.022Z,67151.25
2022-12-20T12:49:23.960Z,67149.78
2022-12-20T12:51:55.747Z,67146.19
2022-12-20T12:54:37.652Z,67134.09
2022-12-20T12:57:51.031Z,67139.31
2022-12-20T13:00:50.026Z,67137.06
2022-12-20T13:03:37.275Z,67134.81
2022-12-20T13:06:26.066Z,67137.06
2022-12-20T13:09:19.271Z,67135.59
2022-12-20T13:11:47.976Z,67143.25
2022-12-20T13:14:17.341Z,67142.69
2022-12-20T13:19:36.028Z,67138.41
2022-12-20T13:22:06.150Z,67144.16
2022-12-20T13:24:53.277Z,67139.88
2022-12-20T13:27:34.837Z,67143.81
2022-12-20T13:30:10.372Z,67140.63
2022-12-20T13:32:46.620Z,67142.13
2022-12-20T13:35:44.309Z,67137.06
2022-12-20T13:38:11.689Z,67138.19
2022-12-20T13:40:52.652Z,67136.72
2022-12-20T13:43:19.635Z,67145.28
2022-12-20T13:45:53.204Z,67140.63
2022-12-20T13:48:28.588Z,67138.41
2022-12-20T13:50:57.455Z,67136.72
2022-12-20T13:53:29.869Z,67135.94
2022-12-20T13:55:57.626Z,67133.69
2022-12-20T13:58:34.403Z,67125.50
2022-12-20T14:01:10.068Z,67128.44
2022-12-20T14:03:47.943Z,67121.75
2022-12-20T14:06:26.317Z,67128.66
2022-12-20T14:08:54.431Z,67128.66
2022-12-20T14:11:26.920Z,67125.28
2022-12-20T14:13:59.157Z,67128.44
2022-12-20T14:16:28.916Z,67123.03
2022-12-20T14:18:56.845Z,67122.13
2022-12-20T14:21:25.319Z,67126.97
2022-12-20T14:23:55.818Z,67125.81
2022-12-20T14:26:29.912Z,67122.47
2022-12-20T14:28:59.597Z,67123.59
2022-12-20T14:31:33.137Z,67131.59
2022-12-20T14:34:10.464Z,67124.13
2022-12-20T14:36:39.511Z,67119.53
2022-12-20T14:39:30.640Z,67129.19
2022-12-20T14:42:09.894Z,67137.06
2022-12-20T14:44:36.956Z,67137.63
2022-12-20T14:47:21.538Z,67139.88
2022-12-20T14:49:52.522Z,67144.38
2022-12-20T14:52:35.457Z,67152.38
2022-12-20T14:55:09.904Z,67153.72
2022-12-20T14:57:37.593Z,67147.94
2022-12-20T15:00:10.634Z,67157.66
2022-12-20T15:03:23.027Z,67157.50
2022-12-20T15:05:52.765Z,67161.78
2022-12-20T15:08:27.192Z,67166.28
2022-12-20T15:11:12.218Z,67169.44
2022-12-20T15:13:42.527Z,67173.22
2022-12-20T15:16:20.984Z,67176.94
2022-12-20T15:18:50.322Z,67175.81
2022-12-20T15:21:23.374Z,67183.47
2022-12-20T15:23:52.210Z,67182.94
2022-12-20T15:26:21.679Z,67180.09
2022-12-20T15:28:48.906Z,67179.41
2022-12-20T15:31:20.646Z,67181.44
2022-12-20T15:33:47.778Z,67176.41
2022-12-20T15:36:20.439Z,67173.81
2022-12-20T15:39:11.286Z,67173.56
2022-12-20T15:41:35.653Z,67175.81
2022-12-20T15:44:10.640Z,67167.81
2022-12-20T15:46:37.783Z,67170.63
2022-12-20T15:49:05.076Z,67171.69
2022-12-20T15:51:40.556Z,67170.78
2022-12-20T15:54:19.254Z,67167.97
2022-12-20T15:56:46.339Z,67168.31
2022-12-20T15:59:48.852Z,67167.97
2022-12-20T16:02:00.981Z,67170.19
2022-12-20T16:04:31.227Z,67171.88
2022-12-20T16:06:58.331Z,67176.41
2022-12-20T16:09:25.978Z,67180.69
2022-12-20T16:11:53.138Z,67168.72
2022-12-20T16:14:21.560Z,67177.50
2022-12-20T16:16:50.183Z,67175.25
2022-12-20T16:19:17.773Z,67174.91
2022-12-20T16:21:50.561Z,67174.56
2022-12-20T16:24:20.181Z,67174.34
2022-12-20T16:26:50.418Z,67184.03
2022-12-20T16:29:17.523Z,67177.16
2022-12-20T16:31:44.855Z,67176.41
2022-12-20T16:34:16.802Z,67172.09
2022-12-20T16:36:44.755Z,67175.50
2022-12-20T16:39:11.855Z,67173.22
2022-12-20T16:41:43.801Z,67176.41
2022-12-20T16:44:18.262Z,67175.81
2022-12-20T16:46:45.860Z,67172.47
2022-12-20T16:49:19.794Z,67169.66
2022-12-20T16:51:48.964Z,67173.03
2022-12-20T16:54:29.795Z,67166.13
2022-12-20T16:56:57.439Z,67166.50
2022-12-20T16:59:25.380Z,67168.72
2022-12-20T17:01:55.298Z,67168.53
2022-12-20T17:04:23.663Z,67171.69
2022-12-20T17:06:50.951Z,67165.72
2022-12-20T17:12:14.172Z,67163.47
2022-12-20T17:14:42.735Z,67165.16
2022-12-20T17:17:12.832Z,67162.34
2022-12-20T17:19:40.106Z,67165.72
2022-12-20T17:22:23.172Z,67163.13
2022-12-20T17:24:50.316Z,67166.28
2022-12-20T17:27:20.160Z,67165.72
2022-12-20T17:29:47.249Z,67167.41
2022-12-20T17:32:25.919Z,67170.00
2022-12-20T17:34:54.371Z,67170.91
2022-12-20T17:37:21.762Z,67162.34
2022-12-20T17:39:49.165Z,67162.34
2022-12-20T17:42:16.874Z,67159.53
2022-12-20T17:44:46.143Z,67162.91
2022-12-20T17:47:13.497Z,67158.41
2022-12-20T17:49:40.598Z,67156.72
2022-12-20T17:52:13.804Z,67159.53
2022-12-20T17:54:43.066Z,67154.91
2022-12-20T17:57:15.466Z,67163.81
2022-12-20T17:59:43.648Z,67160.09
2022-12-20T18:02:24.607Z,67161.22
2022-12-20T18:04:52.159Z,67160.66
2022-12-20T18:07:19.447Z,67158.06
2022-12-20T18:09:48.096Z,67161.78
2022-12-20T18:12:16.037Z,67165.16
2022-12-20T18:14:43.027Z,67162.34
2022-12-20T18:17:10.250Z,67158.63
2022-12-20T18:19:37.431Z,67158.41
2022-12-20T18:22:05.066Z,67160.09
2022-12-20T18:24:32.408Z,67156.16
2022-12-20T18:26:59.543Z,67153.38
2022-12-20T18:29:26.673Z,67155.81
2022-12-20T18:31:53.962Z,67162.69
2022-12-20T18:34:21.135Z,67164.59
2022-12-20T18:36:48.253Z,67164.81
2022-12-20T18:39:15.401Z,67167.41
2022-12-20T18:41:44.269Z,67168.31
2022-12-20T18:44:12.047Z,67168.53
2022-12-20T18:46:39.543Z,67170.19
2022-12-20T18:49:06.679Z,67167.41
2022-12-20T18:51:38.489Z,67169.88
2022-12-20T18:54:08.046Z,67170.19
2022-12-20T18:56:38.124Z,67170.19
2022-12-20T18:59:13.842Z,67167.41
2022-12-20T19:01:42.396Z,67170.00
2022-12-20T19:04:10.767Z,67167.41
2022-12-20T19:06:40.469Z,67162.00
2022-12-20T19:09:10.979Z,67169.44
2022-12-20T19:11:39.020Z,67168.53
2022-12-20T19:14:07.852Z,67170.56
2022-12-20T19:16:39.649Z,67173.56
2022-12-20T19:19:08.593Z,67174.72
2022-12-20T19:21:37.949Z,67172.47
2022-12-20T19:24:10.484Z,67175.63
2022-12-20T19:26:39.008Z,67177.31
2022-12-20T19:29:11.867Z,67180.88
2022-12-20T19:31:39.086Z,67174.16
2022-12-20T19:34:10.789Z,67174.16
2022-12-20T19:36:41.117Z,67174.72
2022-12-20T19:39:14.578Z,67184.94
2022-12-20T19:41:41.686Z,67174.34
2022-12-20T19:44:09.457Z,67173.81
2022-12-20T19:46:36.682Z,67172.66
2022-12-20T19:49:07.132Z,67176.59
2022-12-20T19:51:35.575Z,67179.97
2022-12-20T19:54:02.728Z,67173.81
2022-12-20T19:56:33.653Z,67174.16
2022-12-20T19:59:02.369Z,67176.19
2022-12-20T20:01:29.864Z,67170.19
2022-12-20T20:03:59.186Z,67172.25
2022-12-20T20:06:28.007Z,67172.25
2022-12-20T20:08:59.821Z,67173.94
2022-12-20T20:11:27.712Z,67169.66
2022-12-20T20:13:55.504Z,67181.25
2022-12-20T20:16:23.413Z,67165.56
2022-12-20T20:18:50.921Z,67172.47
2022-12-20T20:21:21.907Z,67168.19
2022-12-20T20:23:50.597Z,67174.50
2022-12-20T20:26:22.613Z,67170.78
2022-12-20T20:28:50.039Z,67166.84
2022-12-20T20:31:18.919Z,67176.19
2022-12-20T20:33:46.406Z,67178.22
2022-12-20T20:36:16.895Z,67172.09
2022-12-20T20:38:44.291Z,67175.63
2022-12-20T20:41:11.887Z,67176.41
2022-12-20T20:43:39.598Z,67171.34
2022-12-20T20:46:08.867Z,67167.97
2022-12-20T20:48:36.041Z,67163.88
2022-12-20T20:51:04.299Z,67167.75
2022-12-20T20:53:34.302Z,67157.50
2022-12-20T20:56:03.273Z,67158.41
2022-12-20T20:58:31.060Z,67157.28
2022-12-20T21:01:00.291Z,67153.38
2022-12-20T21:03:29.886Z,67154.28
2022-12-20T21:08:45.091Z,67143.81
2022-12-20T21:11:12.772Z,67146.41
2022-12-20T21:13:40.060Z,67138.97
2022-12-20T21:16:09.334Z,67138.41
2022-12-20T21:18:36.558Z,67141.34
2022-12-20T21:21:11.988Z,67144.16
2022-12-20T21:23:43.662Z,67144.38
2022-12-20T21:26:10.798Z,67146.84
2022-12-20T21:28:37.965Z,67148.84
2022-12-20T21:31:09.146Z,67147.94
2022-12-20T21:33:36.777Z,67152.03
2022-12-20T21:36:11.379Z,67152.78
2022-12-20T21:38:38.510Z,67156.31
2022-12-20T21:41:08.965Z,67151.69
2022-12-20T21:43:36.054Z,67148.31
2022-12-20T21:46:03.302Z,67147.16
2022-12-20T21:48:30.833Z,67147.75
2022-12-20T21:51:06.679Z,67140.31
2022-12-20T21:53:33.851Z,67144.94
2022-12-20T21:56:01.462Z,67137.84
2022-12-20T21:58:30.144Z,67140.78
2022-12-20T22:00:58.159Z,67144.16
2022-12-20T22:03:28.713Z,67138.63
2022-12-20T22:05:56.465Z,67137.28
2022-12-20T22:08:25.846Z,67137.06
2022-12-20T22:11:13.653Z,67137.41
2022-12-20T22:13:42.412Z,67134.81
2022-12-20T22:16:16.665Z,67134.81
2022-12-20T22:18:45.015Z,67132.56
2022-12-20T22:21:15.631Z,67132.03
2022-12-20T22:23:43.136Z,67132.78
2022-12-20T22:26:16.706Z,67130.88
2022-12-20T22:28:49.512Z,67130.34
2022-12-20T22:31:17.679Z,67126.06
2022-12-20T22:33:45.310Z,67130.34
2022-12-20T22:36:15.199Z,67133.13
2022-12-20T22:38:46.141Z,67138.75
2022-12-20T22:41:16.177Z,67136.50
2022-12-20T22:43:45.069Z,67136.50
2022-12-20T22:46:13.439Z,67140.78
2022-12-20T22:48:41.011Z,67139.88
2022-12-20T22:51:09.984Z,67136.50
2022-12-20T22:53:37.634Z,67135.38
2022-12-20T22:56:06.817Z,67136.50
2022-12-20T22:58:35.045Z,67129.06
2022-12-20T23:01:05.157Z,67127.16
2022-12-20T23:03:32.622Z,67134.25
2022-12-20T23:06:02.086Z,67133.28
2022-12-20T23:08:31.273Z,67128.66
2022-12-20T23:11:16.956Z,67124.13
2022-12-20T23:14:02.400Z,67119.09
2022-12-20T23:16:30.145Z,67115.94
2022-12-20T23:18:59.576Z,67123.75
2022-12-20T23:21:46.053Z,67118.31
2022-12-20T23:24:13.570Z,67109.97
2022-12-20T23:26:41.972Z,67115.16
2022-12-20T23:29:10.186Z,67112.56
2022-12-20T23:31:37.585Z,67119.09
2022-12-20T23:34:07.795Z,67117.97
2022-12-20T23:36:35.026Z,67119.66
2022-12-20T23:39:02.786Z,67120.78
2022-12-20T23:41:29.908Z,67117.06
2022-12-20T23:43:57.043Z,67121.34
2022-12-20T23:46:25.231Z,67121.34
2022-12-20T23:48:53.369Z,67124.13
2022-12-20T23:51:21.602Z,67124.13
2022-12-20T23:53:51.034Z,67124.72
2022-12-20T23:56:20.625Z,67121.34
2022-12-20T23:58:54.265Z,67115.94
